Terminal Aerodrome Forecast
Issued by NWS

Home | Current Version | Previous Version | Graphics & Text | Print | Product List | Glossary On
Versions: 1 2 3 4 5 6 7 8 9 10 11 12 13 14 15 16 17 18 19 20
000
FTUS43 KMPX 211502 AAA
TAFRWF
TAF AMD
KRWF 211502Z 2115/2212 10005KT 1/4SM -SHRA FG OVC002
     FM211800 VRB03KT 1 1/2SM BR OVC003
     FM220200 VRB02KT 1/4SM FG VV002=

USA.gov is the U.S. government's official web portal to all federal, state and local government web resources and services.